Alexander Stewart

Recruteur - Oxford United
20 Févr 2028
Dimanche
Processus

Personnalité

Adaptabilité (1) Ambition (17) Controverse (16) Loyauté (2) Pression (2) Professionnalisme (15) Sportivité (8) Tempérament (19)

Profil

Style d'entraînement Démocratique
Diplôme Continental C
Détermination 7
Gestion des joueurs 7
Motivation 7
Discipline 12
Satisfaction professionnelle
100%
Fatigue
0%
Rôle Recruteur
Salaire 63.3K p/s
Contrat 14.03.2028

Performance

Comportement Bon
Efficacité de l'entraînement
54%
Développement des joueurs
50%
Prévention des blessures
40%
Mise en place tactique
45%

Événements récents

A participé à une réunion de recrutement maintenant
A participé à une réunion de recrutement maintenant
A participé à une réunion de recrutement maintenant
A participé à une réunion de recrutement maintenant
A recommandé une cible de transfert maintenant
Négociation de contrat entamée maintenant
Négociation de contrat entamée maintenant
Négociation de contrat entamée maintenant

Suivi en cours

191
Joueur Club Statut Capacité Confiance Observé Dernière observation Dernier vote
Honest Ahanor AS Roma Actif 135 / 143 40% 2 11.02.2028 -
Avery Appiah Ajax Actif 127 / 127 40% 2 11.02.2028 -
Josh Nichols Tranmere Rovers Actif 109 / 133 40% 4 10.02.2028 -
Haydn Murray-Holme Standard Liege Actif 105 / 100 40% 1 10.02.2028 -
Darryl Bakola Padova Actif 106 / 129 40% 2 09.02.2028 -
Hamad Šaćirović Novi Pazar Actif 93 / 105 40% 1 09.02.2028 -
Harbor Miller LA Galaxy Actif 111 / 103 40% 8 08.02.2028 -
Daniel Banjaqui Benfica Actif 115 / 124 40% 3 08.02.2028 -
Ayden Heaven Luton Town Actif 158 / 144 40% 2 07.02.2028 -
Jan Bürger Gillingham Actif 129 / 131 40% 4 04.02.2028 -
Colin Guske Orlando City Actif 91 / 103 40% 3 04.02.2028 -
Tobias Moi Bodo/Glimt Actif 110 / 117 40% 3 03.02.2028 -
Noahkai Banks Hamburger SV Actif 140 / 143 40% 1 03.02.2028 -
Ronan Kpakio Cardiff City Actif 125 / 127 40% 2 02.02.2028 -
Ernie Weaver AFC Wimbledon Actif 124 / 122 40% 2 31.01.2028 -
Nathan De Cat Hamburger SV Actif 133 / 141 40% 1 31.01.2028 -
Stefan Mitrović Zeleznicar Pancevo Actif 104 / 89 40% 1 28.01.2028 -
Diego Vargas San Marcos de Arica Actif 102 / 101 40% 2 27.01.2028 -
Tiago Gordillo San Miguel Actif 80 / 95 40% 3 27.01.2028 -
Mikkel Hope Haugesund Actif 107 / 105 40% 5 25.01.2028 -
Emmanuel Dzigbah Cukaricki Actif 99 / 108 40% 1 25.01.2028 -
Jofre Torrents Ajax Actif 133 / 130 40% 2 24.01.2028 -
Mauro Carrizo Atlético Tucumán Actif 111 / 112 40% 3 24.01.2028 -
Stuart Hawkins Seattle Sounders Actif 112 / 125 40% 1 23.01.2028 -
Gastón Fernández Chacarita Juniors Négociation 112 / 93 40% 1 17.01.2028 -
Michael Cooper Sheffield United Actif 132 / 134 40% 1 17.01.2028 -
Juan Morán Godoy Cruz Actif 92 / 106 40% 2 16.01.2028 -
Dmitry Pestryakov Dinamo Moscow Actif 124 / 133 40% 3 14.01.2028 -
David Valencia Alianza Petrolera Actif 114 / 138 40% 1 14.01.2028 -
Tyson Pearce St. Louis CITY SC Actif 95 / 108 40% 2 13.01.2028 -
Lucan Louw Afrique Foot Elite Actif 100 / 90 40% 1 13.01.2028 -
Ignacio Fernández Boston River Actif 92 / 90 40% 3 11.01.2028 -
Emiliano Bértoli Patronato Actif 80 / 95 40% 1 11.01.2028 -
Sascha Britschgi Padova Actif 130 / 129 40% 2 10.01.2028 -
Jamie Wähling Hibernians Actif 90 / 92 40% 1 10.01.2028 -
Trey Nyoni Rotherham United Actif 133 / 142 40% 2 08.01.2028 -
Harrison Armstrong Everton Actif 131 / 143 40% 1 08.01.2028 -
Olivier Mambwa Young Boys Actif 111 / 115 40% 1 05.01.2028 -
Samuel Posada Leones Actif 91 / 84 40% 3 04.01.2028 -
Esquerdinha Shrewsbury Town Actif 121 / 130 40% 2 03.01.2028 -
Santiago Hezze Chaves Actif 132 / 133 62% 1 01.01.2028 Approuver
Aurélien Scheidler Tondela Négociation 119 / 119 67% 1 01.01.2028 -
Jorthy Mokio ADO Den Haag Actif 140 / 133 40% 1 29.12.2027 -
Aleko Basiladze Slovan Liberec Actif 110 / 108 40% 1 23.12.2027 -
Andrija Bulatović RC Lens Actif 120 / 134 40% 1 22.12.2027 -
José Correa Deportivo Tachira Actif 82 / 94 40% 1 20.12.2027 -
Juan Camilo Córdoba Deportivo Pereira Actif 83 / 103 40% 2 19.12.2027 -
Hervin Goyes Deportivo Pasto Actif 110 / 121 40% 4 18.12.2027 -
Alejandro Almaraz Nueva Chicago Actif 102 / 126 40% 2 18.12.2027 -
Giovanni Leoni Bradford City Actif 143 / 143 40% 2 16.12.2027 -
Tiago Parente Benfica Actif 117 / 107 40% 3 10.12.2027 -
Dani Díaz Real Sociedad Actif 124 / 131 40% 1 09.12.2027 -
Chaka Coulibaly Remo Stars Actif 96 / 103 40% 2 08.12.2027 -
Luighi Palmeiras Actif 105 / 120 40% 2 08.12.2027 -
Giovanni Cantizano Rosario Central Actif 102 / 123 40% 1 05.12.2027 -
Cooper Sanchez Atlanta United FC Actif 98 / 92 40% 2 02.12.2027 -
Bahia Criciuma Actif 115 / 115 40% 3 02.12.2027 -
Jake Evans Colchester United Actif 119 / 125 40% 2 01.12.2027 -
Tiziano Cabrera Central Norte Actif 95 / 96 40% 4 30.11.2027 -
Aarón Ochoa Málaga Actif 109 / 125 40% 1 30.11.2027 -
Santiago López Independiente Actif 116 / 132 40% 5 26.11.2027 -
Ryan Kavuma-McQueen Accrington Stanley Actif 111 / 133 40% 1 26.11.2027 -
Chimobi Igwilo Rangers International Actif 76 / 87 40% 5 25.11.2027 -
Aiden Hezarkhani Real Salt Lake Actif 80 / 94 40% 3 25.11.2027 -
Lukas Gausdal IK Start Actif 108 / 112 40% 1 24.11.2027 -
Dominik Chong Qui Atlanta United FC Actif 92 / 103 40% 3 22.11.2027 -
Tomás Aranda Boca Juniors Actif 125 / 120 40% 5 19.11.2027 -
Ryan McAidoo Gillingham Actif 124 / 129 40% 1 19.11.2027 -
Joel Ezra Enyimba Actif 98 / 95 40% 6 12.11.2027 -
Gift Udoh Ikorodu City Actif 83 / 102 40% 1 12.11.2027 -
Rio Ngumoha Stockport County Actif 133 / 152 40% 1 09.11.2027 -
Rivaldo Grobler Free State Stars Actif 110 / 98 40% 2 08.11.2027 -
Imran Musa Atvidaberg Actif 76 / 95 40% 2 06.11.2027 -
Diogo Guzmán Montevideo City Torque Actif 129 / 108 40% 5 04.11.2027 -
Santino Carrizo Chacarita Juniors Actif 70 / 88 40% 4 02.11.2027 -
Mikhail Alexandrov Dinamo Brest Actif 101 / 93 40% 2 29.10.2027 -
Facundo Martínez Montevideo City Torque Actif 79 / 92 40% 2 27.10.2027 -
Joel Medina Independiente Actif 95 / 121 40% 2 26.10.2027 -
Ethan Williams Peterborough United Actif 119 / 131 40% 1 26.10.2027 -
Chinedu Nwosu Bendel Insurance Actif 90 / 87 40% 2 25.10.2027 -
Malick Yalcouyé Brighton Actif 135 / 132 40% 1 23.10.2027 -
Snyder Brunell Seattle Sounders Actif 92 / 100 40% 1 23.10.2027 -
Matías Canedo Rampla Juniors Actif 76 / 102 40% 1 19.10.2027 -
Nupe Godstime Bayelsa United Actif 102 / 94 40% 1 19.10.2027 -
Musa Malik Ikorodu City Actif 79 / 105 40% 1 18.10.2027 -
Jonny Shore New York City Actif 87 / 98 40% 1 18.10.2027 -
Emmanuel Ndubueze Shooting Stars Actif 84 / 98 40% 2 12.10.2027 -
Bradley de Jesus Tondela Actif 106 / 109 40% 1 12.10.2027 -
Christos Mouzakitis Hull City Actif 146 / 151 40% 2 10.10.2027 -
Kevin Angulo America de Cali Actif 103 / 112 40% 2 09.10.2027 -
Uche Jaguar Kwara United Actif 83 / 92 40% 1 08.10.2027 -
Gideon Manaseh Ikorodu City Actif 103 / 96 40% 1 08.10.2027 -
Noah Streit CF Montreal Actif 122 / 114 40% 1 05.10.2027 -
Bassey John Enyimba Actif 97 / 82 40% 1 04.10.2027 -
Matthew Litherland Rotherham United Actif 110 / 126 40% 1 04.10.2027 -
Emiliano Zambrano Gimnasia y Esgrima Actif 88 / 109 40% 3 01.10.2027 -
Taha Habroune Columbus Crew Actif 100 / 106 40% 1 01.10.2027 -
Hassan Beja AFC Leopards Actif 84 / 85 40% 2 29.09.2027 -
Joaquín Muñoz O'Higgins Actif 82 / 85 40% 1 28.09.2027 -
Demian Rea Banfield Actif 116 / 100 40% 1 28.09.2027 -
Alfie James Ventforet Kofu Actif 106 / 99 40% 2 27.09.2027 -
Nika Kvaratskhelia Tskhinvali Actif 89 / 102 40% 1 23.09.2027 -
Joseph Abah Remo Stars Actif 79 / 96 40% 3 19.09.2027 -
Lucas Camejo River Plate Actif 69 / 83 40% 1 17.09.2027 -
Dilan Godoy Vélez Actif 108 / 108 40% 1 10.09.2027 -
Jofrank Istifanus Nasarawa United Actif 70 / 84 40% 2 06.09.2027 -
Gustavo Lozano Metropolitanos Actif 91 / 110 40% 1 05.09.2027 -
Oscar Otero Atletico Venezuela Actif 91 / 98 40% 1 01.09.2027 -
Zak Swanson Bradford City Actif 132 / 116 55% 1 16.08.2027 -
Johnly Yfeko Exeter City Actif 120 / 121 55% 1 02.08.2027 -
Jayden Addai Como Actif 135 / 133 40% 1 28.06.2027 -
Matvey Kislyak CSKA Moscow Actif 134 / 151 40% 2 21.06.2027 -
Samuele di Benedetto Bari Actif 117 / 123 40% 1 21.06.2027 -
Leandro Martins Benfica Actif 98 / 97 40% 1 14.06.2027 -
Percy Jali Free State Stars Actif 90 / 104 40% 1 14.06.2027 -
Jefry Zapata Danubio Perdu 118 / 118 67% 1 01.06.2027 -
Khama Dolly Utrecht Négociation 123 / 124 67% 1 01.06.2027 -
Gonçalo Oliveira Benfica Actif 108 / 114 40% 1 31.05.2027 -
Keagan Tau Ajax Cape Town Actif 83 / 105 40% 3 30.05.2027 -
Sam Bell Bristol City Actif 129 / 115 40% 1 30.05.2027 -
Aaron Drinan Swindon Town Actif 95 / 98 40% 1 30.05.2027 -
Davide Bartesaghi AC Milan Actif 137 / 137 40% 1 30.05.2027 -
Peter Shalulile Mamelodi Sundowns Actif 118 / 128 40% 2 28.05.2027 -
Mandla Mahlangu Ajax Cape Town Actif 114 / 108 40% 4 27.05.2027 -
Hany Mukhtar Spezia Actif 143 / 141 40% 6 26.05.2027 -
Tom Cannon Sheffield United Actif 141 / 123 40% 2 25.05.2027 -
Josh Koroma Leyton Orient Actif 115 / 111 40% 1 25.05.2027 -
Edwin Asamoah Berekum Chelsea Actif 95 / 86 40% 2 24.05.2027 -
Lewis Morgan SuperSport United Actif 127 / 118 40% 3 24.05.2027 Observer
Hlompho Lorch Ajax Cape Town Actif 101 / 105 40% 2 24.05.2027 -
Elijah Adebayo Luton Town Actif 134 / 121 40% 1 22.05.2027 -
Mees Rijks Bristol Rovers Actif 124 / 105 40% 3 19.05.2027 -
Che Adams Torino Actif 141 / 134 40% 3 18.05.2027 -
Richard Koné Queens Park Rangers Actif 130 / 121 40% 3 17.05.2027 -
Giacomo Raspadori Atalanta Actif 141 / 146 40% 3 17.05.2027 -
David Damboama El-Kanemi Warriors Actif 89 / 99 40% 1 17.05.2027 -
Robert Mizo Ashanti Gold Actif 105 / 94 40% 2 15.05.2027 -
Zane Albarus Cambridge United Actif 104 / 92 40% 2 14.05.2027 -
Oli McBurnie Hull City Actif 130 / 126 40% 4 12.05.2027 -
Christ Inao Oulaï Fiorentina Actif 125 / 137 40% 1 12.05.2027 -
Themba Ngcobo SuperSport United Actif 122 / 116 40% 3 09.05.2027 Observer
Georginio Rutter Brighton Actif 159 / 153 40% 1 09.05.2027 -
Evidence Makgopa Orlando Pirates Actif 114 / 106 40% 2 07.05.2027 -
Kwame Opoku Asante Kotoko Actif 98 / 92 40% 3 06.05.2027 -
Tommy Conway Middlesbrough Actif 124 / 124 40% 2 03.05.2027 -
Bertrand Traoré Sunderland Actif 146 / 133 40% 1 28.04.2027 -
Will Lankshear Middlesbrough Actif 137 / 133 40% 1 25.04.2027 Plus d'infos
Keinan Davis Udinese Actif 136 / 132 40% 1 25.04.2027 -
Tiago Freitas Benfica Actif 105 / 109 40% 1 25.04.2027 -
Josh King Chelsea Actif 135 / 143 40% 2 23.04.2027 -
Lorent Tolaj Plymouth Argyle Actif 134 / 123 40% 1 22.04.2027 -
Oto John ES Mostaganem Actif 88 / 100 40% 2 19.04.2027 -
Kazunari Kita Real Sociedad Actif 104 / 104 40% 1 19.04.2027 -
Ilyas Ansah Hull City Actif 123 / 135 40% 3 17.04.2027 -
Luis Vázquez Birmingham Actif 131 / 127 40% 1 15.04.2027 -
Martim Cunha Porto Actif 102 / 108 40% 3 14.04.2027 -
Yousef Salech Cardiff City Actif 128 / 128 40% 1 14.04.2027 -
Dylan Lawlor Cardiff City Actif 105 / 113 40% 1 13.04.2027 -
Felix Afful Liberty Professionals Actif 94 / 91 40% 1 08.04.2027 -
Bismark Asante Ashanti Gold Actif 85 / 93 40% 1 04.04.2027 -
Isaac Essien WAFA Actif 93 / 85 40% 1 01.04.2027 -
Joe Gelhardt Hull City Actif 120 / 130 40% 1 29.03.2027 -
Wilson Isidor Sunderland Actif 148 / 141 40% 1 29.03.2027 -
Brayan León Mamelodi Sundowns Actif 137 / 109 40% 1 28.03.2027 -
Harry Cornick AFC Wimbledon Actif 97 / 93 40% 1 28.03.2027 -
Keagan Phiri Platinum Stars Actif 103 / 117 40% 1 26.03.2027 -
Etiosa Ighodaro Kaizer Chiefs Actif 109 / 105 40% 1 24.03.2027 -
Gladson Paintsil Wa All Stars Actif 89 / 93 40% 1 23.03.2027 -
Dean Erasmus Platinum Stars Actif 75 / 97 40% 1 23.03.2027 -
Fortune Bassey Djoliba Actif 106 / 98 40% 1 20.03.2027 -
Zian Flemming Ipswich Town Actif 141 / 137 40% 1 20.03.2027 -
Kieffer Moore Wrexham Actif 118 / 127 40% 1 18.03.2027 -
Cemran Dansin Orlando Pirates Actif 125 / 118 40% 2 08.03.2027 -
Caleb Yirenkyi Coventry City Actif 148 / 143 40% 1 06.03.2027 -
Zeki Amdouni Burnley Actif 128 / 128 40% 1 19.01.2027 -
Lucas Akins Actif 89 / 103 55% 1 11.01.2027 -
Chineme Chinonso Ikorodu City Actif 88 / 87 40% 1 07.12.2026 -
Dom Ballard Leyton Orient Actif 114 / 128 40% 2 05.12.2026 -
Endrick Real Madrid Actif 155 / 150 40% 1 01.12.2026 -
Lévy Néne FC Nordsjaelland Actif 105 / 120 40% 1 01.12.2026 -
Senny Mayulu Paris Saint-Germain Actif 138 / 145 40% 1 27.11.2026 -
Iwan Morgan Grimsby Town Actif 106 / 108 40% 2 25.11.2026 -
Vivaldo Semedo Watford Actif 117 / 118 40% 1 22.11.2026 -
Kabu Agyemang Raymond Bechem United Actif 70 / 84 40% 1 21.11.2026 -
Micah Burton Austin FC Actif 99 / 105 40% 1 12.11.2026 -
Joseph Arumala Ikorodu City Actif 69 / 85 40% 1 11.11.2026 -
Rocco Vata Watford Actif 133 / 119 40% 1 11.11.2026 -
Marcus Caldeira Minnesota United FC Actif 90 / 93 40% 1 08.10.2026 -
Alex Harris Colorado Rapids Actif 104 / 87 40% 1 05.10.2026 -
Archie Goodwin Charlotte Football Club Actif 97 / 109 40% 1 05.10.2026 -
Mario Stroeykens Anderlecht Actif 132 / 131 40% 1 07.09.2026 -